sensor_id;sensor_type;location;lat;lon;timestamp;P1;durP1;ratioP1;P2;durP2;ratioP2
25497;SDS011;13406;53.380;7.226;2023-02-15T00:01:09;9.10;;;8.20;;
25497;SDS011;13406;53.380;7.226;2023-02-15T00:03:35;9.70;;;8.50;;
25497;SDS011;13406;53.380;7.226;2023-02-15T00:06:01;11.30;;;9.60;;
25497;SDS011;13406;53.380;7.226;2023-02-15T00:08:27;12.07;;;8.97;;
25497;SDS011;13406;53.380;7.226;2023-02-15T00:10:52;10.50;;;9.37;;
25497;SDS011;13406;53.380;7.226;2023-02-15T00:13:18;13.10;;;9.73;;
25497;SDS011;13406;53.380;7.226;2023-02-15T00:15:43;10.03;;;8.50;;
25497;SDS011;13406;53.380;7.226;2023-02-15T00:18:08;9.83;;;8.83;;
25497;SDS011;13406;53.380;7.226;2023-02-15T00:20:34;11.00;;;9.40;;
25497;SDS011;13406;53.380;7.226;2023-02-15T00:22:59;10.60;;;8.97;;
25497;SDS011;13406;53.380;7.226;2023-02-15T00:25:25;11.10;;;8.23;;
25497;SDS011;13406;53.380;7.226;2023-02-15T00:27:50;9.93;;;8.90;;
25497;SDS011;13406;53.380;7.226;2023-02-15T00:30:15;10.47;;;8.80;;
25497;SDS011;13406;53.380;7.226;2023-02-15T00:32:41;10.50;;;9.40;;
25497;SDS011;13406;53.380;7.226;2023-02-15T00:35:06;12.77;;;9.27;;
25497;SDS011;13406;53.380;7.226;2023-02-15T00:37:32;9.80;;;8.73;;
25497;SDS011;13406;53.380;7.226;2023-02-15T00:39:57;10.47;;;8.40;;
25497;SDS011;13406;53.380;7.226;2023-02-15T00:42:22;11.33;;;8.90;;
25497;SDS011;13406;53.380;7.226;2023-02-15T00:44:48;9.50;;;8.50;;
25497;SDS011;13406;53.380;7.226;2023-02-15T00:47:13;10.57;;;9.20;;
25497;SDS011;13406;53.380;7.226;2023-02-15T00:49:38;13.80;;;9.00;;
25497;SDS011;13406;53.380;7.226;2023-02-15T00:52:04;11.00;;;9.37;;
25497;SDS011;13406;53.380;7.226;2023-02-15T00:54:29;9.17;;;8.27;;
25497;SDS011;13406;53.380;7.226;2023-02-15T00:56:54;9.60;;;8.07;;
25497;SDS011;13406;53.380;7.226;2023-02-15T00:59:20;9.17;;;8.17;;
25497;SDS011;13406;53.380;7.226;2023-02-15T01:01:45;8.57;;;7.60;;
25497;SDS011;13406;53.380;7.226;2023-02-15T01:04:10;9.67;;;8.67;;
25497;SDS011;13406;53.380;7.226;2023-02-15T01:06:35;8.97;;;7.40;;
25497;SDS011;13406;53.380;7.226;2023-02-15T01:09:01;11.57;;;9.33;;
25497;SDS011;13406;53.380;7.226;2023-02-15T01:11:26;10.33;;;8.67;;
25497;SDS011;13406;53.380;7.226;2023-02-15T01:13:53;13.20;;;9.97;;
25497;SDS011;13406;53.380;7.226;2023-02-15T01:16:18;10.40;;;8.77;;
25497;SDS011;13406;53.380;7.226;2023-02-15T01:18:44;11.17;;;8.67;;
25497;SDS011;13406;53.380;7.226;2023-02-15T01:21:10;11.67;;;8.67;;
25497;SDS011;13406;53.380;7.226;2023-02-15T01:23:36;10.63;;;8.47;;
25497;SDS011;13406;53.380;7.226;2023-02-15T01:26:02;12.37;;;9.03;;
25497;SDS011;13406;53.380;7.226;2023-02-15T01:28:28;11.83;;;9.43;;
25497;SDS011;13406;53.380;7.226;2023-02-15T01:30:53;11.27;;;9.67;;
25497;SDS011;13406;53.380;7.226;2023-02-15T01:33:18;11.50;;;8.80;;
25497;SDS011;13406;53.380;7.226;2023-02-15T01:35:46;15.60;;;9.70;;
25497;SDS011;13406;53.380;7.226;2023-02-15T01:38:12;12.10;;;8.57;;
25497;SDS011;13406;53.380;7.226;2023-02-15T01:40:38;12.50;;;10.17;;
25497;SDS011;13406;53.380;7.226;2023-02-15T01:43:07;14.10;;;9.37;;
25497;SDS011;13406;53.380;7.226;2023-02-15T01:45:33;13.93;;;9.80;;
25497;SDS011;13406;53.380;7.226;2023-02-15T01:50:46;12.87;;;9.50;;
25497;SDS011;13406;53.380;7.226;2023-02-15T01:53:25;12.20;;;9.50;;
25497;SDS011;13406;53.380;7.226;2023-02-15T01:55:55;14.80;;;10.33;;
25497;SDS011;13406;53.380;7.226;2023-02-15T01:58:22;12.07;;;9.30;;
25497;SDS011;13406;53.380;7.226;2023-02-15T02:00:48;12.37;;;9.10;;
25497;SDS011;13406;53.380;7.226;2023-02-15T02:03:13;11.37;;;9.50;;
25497;SDS011;13406;53.380;7.226;2023-02-15T02:05:39;9.67;;;7.63;;
25497;SDS011;13406;53.380;7.226;2023-02-15T02:08:05;9.00;;;7.33;;
25497;SDS011;13406;53.380;7.226;2023-02-15T02:10:31;8.10;;;6.80;;
25497;SDS011;13406;53.380;7.226;2023-02-15T02:12:59;7.10;;;6.40;;
25497;SDS011;13406;53.380;7.226;2023-02-15T02:15:29;8.33;;;6.87;;
25497;SDS011;13406;53.380;7.226;2023-02-15T02:20:37;8.20;;;6.80;;
25497;SDS011;13406;53.380;7.226;2023-02-15T02:31:11;10.90;;;8.00;;
25497;SDS011;13406;53.380;7.226;2023-02-15T02:33:54;11.30;;;8.30;;
25497;SDS011;13406;53.380;7.226;2023-02-15T02:36:29;9.43;;;7.50;;
25497;SDS011;13406;53.380;7.226;2023-02-15T02:39:04;8.57;;;7.57;;
25497;SDS011;13406;53.380;7.226;2023-02-15T02:41:55;7.47;;;6.40;;
25497;SDS011;13406;53.380;7.226;2023-02-15T02:44:42;8.93;;;7.80;;
25497;SDS011;13406;53.380;7.226;2023-02-15T02:47:12;10.60;;;8.13;;
25497;SDS011;13406;53.380;7.226;2023-02-15T02:49:41;8.50;;;7.60;;
25497;SDS011;13406;53.380;7.226;2023-02-15T02:52:32;8.43;;;7.20;;
25497;SDS011;13406;53.380;7.226;2023-02-15T02:54:52;9.07;;;7.07;;
25497;SDS011;13406;53.380;7.226;2023-02-15T02:57:17;9.10;;;7.90;;
25497;SDS011;13406;53.380;7.226;2023-02-15T02:59:43;7.90;;;6.97;;
25497;SDS011;13406;53.380;7.226;2023-02-15T03:02:16;8.33;;;7.20;;
25497;SDS011;13406;53.380;7.226;2023-02-15T03:04:44;8.50;;;7.37;;
25497;SDS011;13406;53.380;7.226;2023-02-15T03:07:11;8.30;;;6.90;;
25497;SDS011;13406;53.380;7.226;2023-02-15T03:09:41;8.07;;;7.27;;
25497;SDS011;13406;53.380;7.226;2023-02-15T03:12:11;8.67;;;6.93;;
25497;SDS011;13406;53.380;7.226;2023-02-15T03:14:37;9.13;;;7.60;;
25497;SDS011;13406;53.380;7.226;2023-02-15T03:17:03;9.57;;;8.57;;
25497;SDS011;13406;53.380;7.226;2023-02-15T03:19:30;8.17;;;7.37;;
25497;SDS011;13406;53.380;7.226;2023-02-15T03:22:01;10.37;;;8.03;;
25497;SDS011;13406;53.380;7.226;2023-02-15T03:24:44;7.83;;;7.03;;
25497;SDS011;13406;53.380;7.226;2023-02-15T03:27:20;9.90;;;8.43;;
25497;SDS011;13406;53.380;7.226;2023-02-15T03:29:48;7.90;;;6.57;;
25497;SDS011;13406;53.380;7.226;2023-02-15T03:32:15;8.37;;;7.40;;
25497;SDS011;13406;53.380;7.226;2023-02-15T03:34:40;7.90;;;7.03;;
25497;SDS011;13406;53.380;7.226;2023-02-15T03:37:10;8.87;;;7.17;;
25497;SDS011;13406;53.380;7.226;2023-02-15T03:39:42;8.27;;;6.63;;
25497;SDS011;13406;53.380;7.226;2023-02-15T03:44:42;10.67;;;7.57;;
25497;SDS011;13406;53.380;7.226;2023-02-15T03:47:11;15.10;;;8.20;;
25497;SDS011;13406;53.380;7.226;2023-02-15T03:49:41;10.30;;;7.13;;
25497;SDS011;13406;53.380;7.226;2023-02-15T03:52:07;11.57;;;7.87;;
25497;SDS011;13406;53.380;7.226;2023-02-15T03:54:34;11.00;;;7.87;;
25497;SDS011;13406;53.380;7.226;2023-02-15T03:59:57;10.27;;;7.00;;
25497;SDS011;13406;53.380;7.226;2023-02-15T04:02:44;9.77;;;6.57;;
25497;SDS011;13406;53.380;7.226;2023-02-15T04:05:12;10.80;;;7.00;;
25497;SDS011;13406;53.380;7.226;2023-02-15T04:07:37;10.40;;;7.73;;
25497;SDS011;13406;53.380;7.226;2023-02-15T04:10:02;10.00;;;7.73;;
25497;SDS011;13406;53.380;7.226;2023-02-15T04:12:46;12.10;;;7.77;;
25497;SDS011;13406;53.380;7.226;2023-02-15T04:15:12;15.00;;;7.97;;
25497;SDS011;13406;53.380;7.226;2023-02-15T04:17:56;10.67;;;7.47;;
25497;SDS011;13406;53.380;7.226;2023-02-15T04:20:21;15.80;;;8.33;;
25497;SDS011;13406;53.380;7.226;2023-02-15T04:23:05;14.80;;;7.93;;
25497;SDS011;13406;53.380;7.226;2023-02-15T04:25:49;12.13;;;7.60;;
25497;SDS011;13406;53.380;7.226;2023-02-15T04:28:15;7.60;;;5.97;;
25497;SDS011;13406;53.380;7.226;2023-02-15T04:30:40;9.53;;;7.00;;
25497;SDS011;13406;53.380;7.226;2023-02-15T04:33:05;7.67;;;6.30;;
25497;SDS011;13406;53.380;7.226;2023-02-15T04:35:30;7.13;;;6.30;;
25497;SDS011;13406;53.380;7.226;2023-02-15T04:37:56;6.70;;;6.00;;
25497;SDS011;13406;53.380;7.226;2023-02-15T04:40:21;6.40;;;5.80;;
25497;SDS011;13406;53.380;7.226;2023-02-15T04:42:47;6.33;;;5.70;;
25497;SDS011;13406;53.380;7.226;2023-02-15T04:45:13;7.77;;;5.70;;
25497;SDS011;13406;53.380;7.226;2023-02-15T04:47:39;9.20;;;7.00;;
25497;SDS011;13406;53.380;7.226;2023-02-15T04:50:04;7.30;;;6.37;;
25497;SDS011;13406;53.380;7.226;2023-02-15T04:52:29;6.93;;;6.20;;
25497;SDS011;13406;53.380;7.226;2023-02-15T04:54:55;8.10;;;6.83;;
25497;SDS011;13406;53.380;7.226;2023-02-15T04:57:20;7.90;;;7.00;;
25497;SDS011;13406;53.380;7.226;2023-02-15T04:59:45;7.73;;;6.23;;
25497;SDS011;13406;53.380;7.226;2023-02-15T05:02:11;8.60;;;7.63;;
25497;SDS011;13406;53.380;7.226;2023-02-15T05:04:38;7.83;;;7.03;;
25497;SDS011;13406;53.380;7.226;2023-02-15T05:07:03;7.30;;;5.60;;
25497;SDS011;13406;53.380;7.226;2023-02-15T05:09:29;7.13;;;6.30;;
25497;SDS011;13406;53.380;7.226;2023-02-15T05:11:54;7.37;;;6.20;;
25497;SDS011;13406;53.380;7.226;2023-02-15T05:14:19;8.67;;;7.07;;
25497;SDS011;13406;53.380;7.226;2023-02-15T05:16:44;7.43;;;6.73;;
25497;SDS011;13406;53.380;7.226;2023-02-15T05:19:10;11.40;;;8.10;;
25497;SDS011;13406;53.380;7.226;2023-02-15T05:21:35;7.77;;;6.97;;
25497;SDS011;13406;53.380;7.226;2023-02-15T05:24:00;8.60;;;7.70;;
25497;SDS011;13406;53.380;7.226;2023-02-15T05:26:46;8.33;;;7.33;;
25497;SDS011;13406;53.380;7.226;2023-02-15T05:29:29;8.33;;;7.40;;
25497;SDS011;13406;53.380;7.226;2023-02-15T05:31:55;8.80;;;7.90;;
25497;SDS011;13406;53.380;7.226;2023-02-15T05:34:22;8.40;;;7.50;;
25497;SDS011;13406;53.380;7.226;2023-02-15T05:36:47;10.07;;;8.23;;
25497;SDS011;13406;53.380;7.226;2023-02-15T05:39:13;9.80;;;8.60;;
25497;SDS011;13406;53.380;7.226;2023-02-15T05:41:38;8.37;;;7.43;;
25497;SDS011;13406;53.380;7.226;2023-02-15T05:44:03;9.20;;;8.27;;
25497;SDS011;13406;53.380;7.226;2023-02-15T05:46:28;10.20;;;8.40;;
25497;SDS011;13406;53.380;7.226;2023-02-15T05:48:54;10.97;;;9.30;;
25497;SDS011;13406;53.380;7.226;2023-02-15T05:51:19;9.70;;;8.37;;
25497;SDS011;13406;53.380;7.226;2023-02-15T05:53:44;10.00;;;8.90;;
25497;SDS011;13406;53.380;7.226;2023-02-15T05:56:10;11.77;;;9.70;;
25497;SDS011;13406;53.380;7.226;2023-02-15T05:58:36;12.43;;;10.20;;
25497;SDS011;13406;53.380;7.226;2023-02-15T06:01:12;11.93;;;9.40;;
25497;SDS011;13406;53.380;7.226;2023-02-15T06:03:37;14.43;;;11.20;;
25497;SDS011;13406;53.380;7.226;2023-02-15T06:06:03;16.03;;;11.23;;
25497;SDS011;13406;53.380;7.226;2023-02-15T06:08:29;13.70;;;11.07;;
25497;SDS011;13406;53.380;7.226;2023-02-15T06:10:55;13.93;;;11.13;;
25497;SDS011;13406;53.380;7.226;2023-02-15T06:13:20;14.43;;;11.00;;
25497;SDS011;13406;53.380;7.226;2023-02-15T06:15:46;11.80;;;10.33;;
25497;SDS011;13406;53.380;7.226;2023-02-15T06:18:11;12.20;;;10.53;;
25497;SDS011;13406;53.380;7.226;2023-02-15T06:20:36;11.83;;;10.10;;
25497;SDS011;13406;53.380;7.226;2023-02-15T06:23:02;12.60;;;10.33;;
25497;SDS011;13406;53.380;7.226;2023-02-15T06:25:27;13.50;;;10.83;;
25497;SDS011;13406;53.380;7.226;2023-02-15T06:27:52;11.50;;;10.17;;
25497;SDS011;13406;53.380;7.226;2023-02-15T06:30:17;12.83;;;11.03;;
25497;SDS011;13406;53.380;7.226;2023-02-15T06:32:45;12.00;;;9.90;;
25497;SDS011;13406;53.380;7.226;2023-02-15T06:35:10;14.00;;;10.83;;
25497;SDS011;13406;53.380;7.226;2023-02-15T06:37:36;12.23;;;10.90;;
25497;SDS011;13406;53.380;7.226;2023-02-15T06:40:01;14.47;;;11.80;;
25497;SDS011;13406;53.380;7.226;2023-02-15T06:42:27;13.50;;;11.30;;
25497;SDS011;13406;53.380;7.226;2023-02-15T06:44:52;12.93;;;10.80;;
25497;SDS011;13406;53.380;7.226;2023-02-15T06:47:17;13.00;;;11.50;;
25497;SDS011;13406;53.380;7.226;2023-02-15T06:49:43;14.73;;;12.23;;
25497;SDS011;13406;53.380;7.226;2023-02-15T06:52:09;13.90;;;12.00;;
25497;SDS011;13406;53.380;7.226;2023-02-15T06:54:34;12.50;;;10.80;;
25497;SDS011;13406;53.380;7.226;2023-02-15T06:57:00;13.00;;;11.60;;
25497;SDS011;13406;53.380;7.226;2023-02-15T06:59:25;16.33;;;12.93;;
25497;SDS011;13406;53.380;7.226;2023-02-15T07:01:50;13.33;;;11.17;;
25497;SDS011;13406;53.380;7.226;2023-02-15T07:04:15;13.47;;;11.53;;
25497;SDS011;13406;53.380;7.226;2023-02-15T07:06:41;14.57;;;12.07;;
25497;SDS011;13406;53.380;7.226;2023-02-15T07:09:06;15.00;;;11.60;;
25497;SDS011;13406;53.380;7.226;2023-02-15T07:11:32;16.60;;;12.30;;
25497;SDS011;13406;53.380;7.226;2023-02-15T07:14:16;13.57;;;11.53;;
25497;SDS011;13406;53.380;7.226;2023-02-15T07:16:41;15.07;;;12.40;;
25497;SDS011;13406;53.380;7.226;2023-02-15T07:19:06;14.70;;;12.43;;
25497;SDS011;13406;53.380;7.226;2023-02-15T07:21:32;12.60;;;11.13;;
25497;SDS011;13406;53.380;7.226;2023-02-15T07:23:58;16.57;;;13.27;;
25497;SDS011;13406;53.380;7.226;2023-02-15T07:26:23;15.20;;;12.40;;
25497;SDS011;13406;53.380;7.226;2023-02-15T07:28:49;16.00;;;12.77;;
25497;SDS011;13406;53.380;7.226;2023-02-15T07:31:14;14.50;;;12.03;;
25497;SDS011;13406;53.380;7.226;2023-02-15T07:33:39;17.03;;;12.63;;
25497;SDS011;13406;53.380;7.226;2023-02-15T07:36:04;14.50;;;12.33;;
25497;SDS011;13406;53.380;7.226;2023-02-15T07:38:34;16.10;;;13.37;;
25497;SDS011;13406;53.380;7.226;2023-02-15T07:41:00;14.47;;;12.97;;
25497;SDS011;13406;53.380;7.226;2023-02-15T07:43:26;16.20;;;13.13;;
25497;SDS011;13406;53.380;7.226;2023-02-15T07:45:54;17.73;;;14.07;;
25497;SDS011;13406;53.380;7.226;2023-02-15T07:48:19;19.83;;;15.07;;
25497;SDS011;13406;53.380;7.226;2023-02-15T07:50:44;20.60;;;16.40;;
25497;SDS011;13406;53.380;7.226;2023-02-15T07:53:09;21.40;;;16.10;;
25497;SDS011;13406;53.380;7.226;2023-02-15T07:55:35;19.50;;;16.03;;
25497;SDS011;13406;53.380;7.226;2023-02-15T07:58:00;19.40;;;16.30;;
25497;SDS011;13406;53.380;7.226;2023-02-15T08:00:25;18.60;;;16.40;;
25497;SDS011;13406;53.380;7.226;2023-02-15T08:02:52;20.23;;;16.90;;
25497;SDS011;13406;53.380;7.226;2023-02-15T08:05:39;18.60;;;15.77;;
25497;SDS011;13406;53.380;7.226;2023-02-15T08:08:05;18.90;;;16.83;;
25497;SDS011;13406;53.380;7.226;2023-02-15T08:10:30;20.40;;;17.57;;
25497;SDS011;13406;53.380;7.226;2023-02-15T08:13:14;22.53;;;18.17;;
25497;SDS011;13406;53.380;7.226;2023-02-15T08:15:39;24.13;;;20.40;;
25497;SDS011;13406;53.380;7.226;2023-02-15T08:18:05;24.13;;;19.20;;
25497;SDS011;13406;53.380;7.226;2023-02-15T08:20:30;24.30;;;19.77;;
25497;SDS011;13406;53.380;7.226;2023-02-15T08:22:55;23.43;;;20.60;;
25497;SDS011;13406;53.380;7.226;2023-02-15T08:25:21;24.00;;;19.83;;
25497;SDS011;13406;53.380;7.226;2023-02-15T08:27:46;26.87;;;21.33;;
25497;SDS011;13406;53.380;7.226;2023-02-15T08:30:11;24.53;;;19.90;;
25497;SDS011;13406;53.380;7.226;2023-02-15T08:32:39;27.97;;;21.00;;
25497;SDS011;13406;53.380;7.226;2023-02-15T08:35:04;28.57;;;21.50;;
25497;SDS011;13406;53.380;7.226;2023-02-15T08:37:29;23.13;;;20.57;;
25497;SDS011;13406;53.380;7.226;2023-02-15T08:39:55;25.77;;;21.03;;
25497;SDS011;13406;53.380;7.226;2023-02-15T08:42:20;30.50;;;23.67;;
25497;SDS011;13406;53.380;7.226;2023-02-15T08:44:45;25.37;;;20.80;;
25497;SDS011;13406;53.380;7.226;2023-02-15T08:47:11;26.03;;;21.20;;
25497;SDS011;13406;53.380;7.226;2023-02-15T08:49:36;28.23;;;20.80;;
25497;SDS011;13406;53.380;7.226;2023-02-15T08:52:01;27.87;;;23.00;;
25497;SDS011;13406;53.380;7.226;2023-02-15T08:54:27;25.60;;;21.97;;
25497;SDS011;13406;53.380;7.226;2023-02-15T08:56:52;26.40;;;22.50;;
25497;SDS011;13406;53.380;7.226;2023-02-15T08:59:19;30.90;;;25.20;;
25497;SDS011;13406;53.380;7.226;2023-02-15T09:01:45;29.20;;;24.40;;
25497;SDS011;13406;53.380;7.226;2023-02-15T09:04:11;30.27;;;24.37;;
25497;SDS011;13406;53.380;7.226;2023-02-15T09:06:38;27.90;;;24.20;;
25497;SDS011;13406;53.380;7.226;2023-02-15T09:09:04;30.07;;;23.17;;
25497;SDS011;13406;53.380;7.226;2023-02-15T09:11:30;34.17;;;25.07;;
25497;SDS011;13406;53.380;7.226;2023-02-15T09:14:01;31.93;;;25.87;;
25497;SDS011;13406;53.380;7.226;2023-02-15T09:16:28;32.47;;;25.63;;
25497;SDS011;13406;53.380;7.226;2023-02-15T09:18:54;36.27;;;25.20;;
25497;SDS011;13406;53.380;7.226;2023-02-15T09:21:20;33.33;;;24.73;;
25497;SDS011;13406;53.380;7.226;2023-02-15T09:23:47;29.23;;;23.97;;
25497;SDS011;13406;53.380;7.226;2023-02-15T09:26:14;37.20;;;25.80;;
25497;SDS011;13406;53.380;7.226;2023-02-15T09:28:39;32.80;;;26.43;;
25497;SDS011;13406;53.380;7.226;2023-02-15T09:33:36;34.20;;;25.80;;
25497;SDS011;13406;53.380;7.226;2023-02-15T09:36:03;31.03;;;23.73;;
25497;SDS011;13406;53.380;7.226;2023-02-15T09:38:28;30.73;;;24.20;;
25497;SDS011;13406;53.380;7.226;2023-02-15T09:41:02;34.33;;;25.50;;
25497;SDS011;13406;53.380;7.226;2023-02-15T09:43:38;32.63;;;26.23;;
25497;SDS011;13406;53.380;7.226;2023-02-15T09:46:11;28.13;;;22.83;;
25497;SDS011;13406;53.380;7.226;2023-02-15T09:48:43;33.27;;;25.73;;
25497;SDS011;13406;53.380;7.226;2023-02-15T09:51:20;32.13;;;23.80;;
25497;SDS011;13406;53.380;7.226;2023-02-15T09:56:37;32.47;;;25.27;;
25497;SDS011;13406;53.380;7.226;2023-02-15T10:04:39;34.03;;;25.33;;
25497;SDS011;13406;53.380;7.226;2023-02-15T10:09:51;36.47;;;26.60;;
25497;SDS011;13406;53.380;7.226;2023-02-15T10:25:41;37.70;;;27.20;;
25497;SDS011;13406;53.380;7.226;2023-02-15T10:28:18;39.70;;;27.30;;
25497;SDS011;13406;53.380;7.226;2023-02-15T10:33:19;34.83;;;26.67;;
25497;SDS011;13406;53.380;7.226;2023-02-15T10:38:42;33.92;;;29.02;;
25497;SDS011;13406;53.380;7.226;2023-02-15T10:46:23;41.33;;;27.20;;
25497;SDS011;13406;53.380;7.226;2023-02-15T10:53:53;34.97;;;26.43;;
25497;SDS011;13406;53.380;7.226;2023-02-15T10:56:32;35.67;;;27.53;;
25497;SDS011;13406;53.380;7.226;2023-02-15T11:01:30;32.10;;;24.67;;
25497;SDS011;13406;53.380;7.226;2023-02-15T11:04:09;33.40;;;24.57;;
25497;SDS011;13406;53.380;7.226;2023-02-15T11:06:38;36.17;;;28.53;;
25497;SDS011;13406;53.380;7.226;2023-02-15T11:09:11;42.03;;;29.10;;
25497;SDS011;13406;53.380;7.226;2023-02-15T11:11:38;43.00;;;27.10;;
25497;SDS011;13406;53.380;7.226;2023-02-15T11:14:10;36.67;;;26.70;;
25497;SDS011;13406;53.380;7.226;2023-02-15T11:16:38;36.40;;;27.30;;
25497;SDS011;13406;53.380;7.226;2023-02-15T11:19:06;37.87;;;26.93;;
25497;SDS011;13406;53.380;7.226;2023-02-15T11:21:37;35.13;;;27.63;;
25497;SDS011;13406;53.380;7.226;2023-02-15T11:24:09;36.03;;;26.60;;
25497;SDS011;13406;53.380;7.226;2023-02-15T11:26:37;34.93;;;26.60;;
25497;SDS011;13406;53.380;7.226;2023-02-15T11:29:10;34.63;;;27.20;;
25497;SDS011;13406;53.380;7.226;2023-02-15T11:31:47;40.97;;;26.60;;
25497;SDS011;13406;53.380;7.226;2023-02-15T11:34:18;36.70;;;28.30;;
25497;SDS011;13406;53.380;7.226;2023-02-15T11:36:46;37.90;;;28.03;;
25497;SDS011;13406;53.380;7.226;2023-02-15T11:39:15;38.20;;;27.10;;
25497;SDS011;13406;53.380;7.226;2023-02-15T11:41:41;39.03;;;30.30;;
25497;SDS011;13406;53.380;7.226;2023-02-15T11:44:16;34.60;;;28.37;;
25497;SDS011;13406;53.380;7.226;2023-02-15T11:46:44;34.97;;;28.13;;
25497;SDS011;13406;53.380;7.226;2023-02-15T11:49:22;37.00;;;29.37;;
25497;SDS011;13406;53.380;7.226;2023-02-15T11:51:48;41.20;;;29.50;;
25497;SDS011;13406;53.380;7.226;2023-02-15T11:54:16;35.20;;;26.77;;
25497;SDS011;13406;53.380;7.226;2023-02-15T11:56:42;36.60;;;27.50;;
25497;SDS011;13406;53.380;7.226;2023-02-15T11:59:11;39.67;;;27.97;;
25497;SDS011;13406;53.380;7.226;2023-02-15T12:01:40;40.60;;;28.77;;
25497;SDS011;13406;53.380;7.226;2023-02-15T12:04:14;35.30;;;26.60;;
25497;SDS011;13406;53.380;7.226;2023-02-15T12:06:42;40.20;;;27.63;;
25497;SDS011;13406;53.380;7.226;2023-02-15T12:09:17;41.73;;;28.30;;
25497;SDS011;13406;53.380;7.226;2023-02-15T12:11:45;36.47;;;28.37;;
25497;SDS011;13406;53.380;7.226;2023-02-15T12:14:11;38.27;;;29.23;;
25497;SDS011;13406;53.380;7.226;2023-02-15T12:16:40;35.67;;;26.77;;
25497;SDS011;13406;53.380;7.226;2023-02-15T12:19:10;36.17;;;27.03;;
25497;SDS011;13406;53.380;7.226;2023-02-15T12:21:41;41.43;;;29.17;;
25497;SDS011;13406;53.380;7.226;2023-02-15T12:24:15;41.77;;;28.80;;
25497;SDS011;13406;53.380;7.226;2023-02-15T12:26:42;34.00;;;26.27;;
25497;SDS011;13406;53.380;7.226;2023-02-15T12:29:12;37.90;;;27.03;;
25497;SDS011;13406;53.380;7.226;2023-02-15T12:31:40;38.87;;;27.33;;
25497;SDS011;13406;53.380;7.226;2023-02-15T12:34:12;37.17;;;27.70;;
25497;SDS011;13406;53.380;7.226;2023-02-15T12:36:54;42.80;;;27.47;;
25497;SDS011;13406;53.380;7.226;2023-02-15T12:39:31;38.43;;;27.30;;
25497;SDS011;13406;53.380;7.226;2023-02-15T12:44:29;34.47;;;25.50;;
25497;SDS011;13406;53.380;7.226;2023-02-15T12:49:45;36.43;;;27.00;;
25497;SDS011;13406;53.380;7.226;2023-02-15T12:54:42;45.23;;;28.20;;
25497;SDS011;13406;53.380;7.226;2023-02-15T12:59:54;42.10;;;27.77;;
25497;SDS011;13406;53.380;7.226;2023-02-15T13:05:06;38.33;;;26.87;;
25497;SDS011;13406;53.380;7.226;2023-02-15T13:07:33;39.23;;;26.53;;
25497;SDS011;13406;53.380;7.226;2023-02-15T13:09:58;33.07;;;25.40;;
25497;SDS011;13406;53.380;7.226;2023-02-15T13:12:24;35.13;;;24.93;;
25497;SDS011;13406;53.380;7.226;2023-02-15T13:14:55;38.90;;;26.30;;
25497;SDS011;13406;53.380;7.226;2023-02-15T13:17:23;34.63;;;26.10;;
25497;SDS011;13406;53.380;7.226;2023-02-15T13:19:52;41.40;;;26.13;;
25497;SDS011;13406;53.380;7.226;2023-02-15T13:22:23;36.10;;;25.67;;
25497;SDS011;13406;53.380;7.226;2023-02-15T13:24:55;39.73;;;26.63;;
25497;SDS011;13406;53.380;7.226;2023-02-15T13:27:22;41.10;;;26.90;;
25497;SDS011;13406;53.380;7.226;2023-02-15T13:29:56;38.00;;;25.80;;
25497;SDS011;13406;53.380;7.226;2023-02-15T13:32:41;37.83;;;25.30;;
25497;SDS011;13406;53.380;7.226;2023-02-15T13:35:10;36.30;;;25.40;;
25497;SDS011;13406;53.380;7.226;2023-02-15T13:42:36;37.70;;;25.90;;
25497;SDS011;13406;53.380;7.226;2023-02-15T13:47:54;42.40;;;26.20;;
25497;SDS011;13406;53.380;7.226;2023-02-15T13:55:38;38.67;;;26.87;;
25497;SDS011;13406;53.380;7.226;2023-02-15T14:00:56;43.40;;;27.53;;
25497;SDS011;13406;53.380;7.226;2023-02-15T14:03:39;36.27;;;25.97;;
25497;SDS011;13406;53.380;7.226;2023-02-15T14:06:14;36.53;;;24.97;;
25497;SDS011;13406;53.380;7.226;2023-02-15T14:08:50;36.73;;;24.93;;
25497;SDS011;13406;53.380;7.226;2023-02-15T14:16:40;34.07;;;25.10;;
25497;SDS011;13406;53.380;7.226;2023-02-15T14:31:47;36.60;;;25.87;;
25497;SDS011;13406;53.380;7.226;2023-02-15T14:34:22;39.73;;;25.77;;
25497;SDS011;13406;53.380;7.226;2023-02-15T14:36:49;38.63;;;25.70;;
25497;SDS011;13406;53.380;7.226;2023-02-15T14:42:07;40.43;;;28.13;;
25497;SDS011;13406;53.380;7.226;2023-02-15T14:44:37;38.20;;;27.30;;
25497;SDS011;13406;53.380;7.226;2023-02-15T14:47:15;40.53;;;27.23;;
25497;SDS011;13406;53.380;7.226;2023-02-15T14:49:43;40.77;;;29.40;;
25497;SDS011;13406;53.380;7.226;2023-02-15T14:52:09;41.53;;;27.23;;
25497;SDS011;13406;53.380;7.226;2023-02-15T15:02:13;37.57;;;26.97;;
25497;SDS011;13406;53.380;7.226;2023-02-15T15:04:41;38.37;;;27.13;;
25497;SDS011;13406;53.380;7.226;2023-02-15T15:07:17;36.30;;;26.80;;
25497;SDS011;13406;53.380;7.226;2023-02-15T15:09:44;42.40;;;29.70;;
25497;SDS011;13406;53.380;7.226;2023-02-15T15:14:41;43.33;;;29.70;;
25497;SDS011;13406;53.380;7.226;2023-02-15T15:17:09;38.83;;;27.47;;
25497;SDS011;13406;53.380;7.226;2023-02-15T15:22:12;41.30;;;28.17;;
25497;SDS011;13406;53.380;7.226;2023-02-15T15:29:50;44.53;;;30.10;;
25497;SDS011;13406;53.380;7.226;2023-02-15T15:32:16;40.97;;;29.03;;
25497;SDS011;13406;53.380;7.226;2023-02-15T15:35:01;43.80;;;29.13;;
25497;SDS011;13406;53.380;7.226;2023-02-15T15:37:40;44.47;;;31.27;;
25497;SDS011;13406;53.380;7.226;2023-02-15T15:40:17;41.10;;;29.00;;
25497;SDS011;13406;53.380;7.226;2023-02-15T15:50:46;43.00;;;29.67;;
25497;SDS011;13406;53.380;7.226;2023-02-15T15:53:17;38.83;;;28.37;;
25497;SDS011;13406;53.380;7.226;2023-02-15T15:55:44;38.90;;;29.07;;
25497;SDS011;13406;53.380;7.226;2023-02-15T15:58:12;43.07;;;28.43;;
25497;SDS011;13406;53.380;7.226;2023-02-15T16:03:05;41.67;;;29.07;;
25497;SDS011;13406;53.380;7.226;2023-02-15T16:05:38;45.60;;;30.97;;
25497;SDS011;13406;53.380;7.226;2023-02-15T16:08:03;36.70;;;27.43;;
25497;SDS011;13406;53.380;7.226;2023-02-15T16:10:29;43.13;;;28.50;;
25497;SDS011;13406;53.380;7.226;2023-02-15T16:12:57;43.13;;;29.30;;
25497;SDS011;13406;53.380;7.226;2023-02-15T16:15:23;47.17;;;30.20;;
25497;SDS011;13406;53.380;7.226;2023-02-15T16:17:50;39.83;;;28.50;;
25497;SDS011;13406;53.380;7.226;2023-02-15T16:20:26;40.17;;;28.93;;
25497;SDS011;13406;53.380;7.226;2023-02-15T16:25:26;36.60;;;26.70;;
25497;SDS011;13406;53.380;7.226;2023-02-15T16:27:54;41.40;;;28.23;;
25497;SDS011;13406;53.380;7.226;2023-02-15T16:30:32;38.30;;;27.90;;
25497;SDS011;13406;53.380;7.226;2023-02-15T16:35:30;39.77;;;28.33;;
25497;SDS011;13406;53.380;7.226;2023-02-15T16:37:55;36.80;;;27.80;;
25497;SDS011;13406;53.380;7.226;2023-02-15T16:42:52;39.37;;;27.17;;
25497;SDS011;13406;53.380;7.226;2023-02-15T16:45:19;37.33;;;27.00;;
25497;SDS011;13406;53.380;7.226;2023-02-15T16:47:46;39.83;;;28.40;;
25497;SDS011;13406;53.380;7.226;2023-02-15T16:50:22;40.97;;;28.97;;
25497;SDS011;13406;53.380;7.226;2023-02-15T16:52:48;39.30;;;28.00;;
25497;SDS011;13406;53.380;7.226;2023-02-15T16:55:23;40.30;;;29.27;;
25497;SDS011;13406;53.380;7.226;2023-02-15T16:57:49;43.27;;;29.20;;
25497;SDS011;13406;53.380;7.226;2023-02-15T17:00:19;40.90;;;28.90;;
25497;SDS011;13406;53.380;7.226;2023-02-15T17:02:58;40.20;;;29.30;;
25497;SDS011;13406;53.380;7.226;2023-02-15T17:05:25;36.20;;;27.00;;